createdAt,value
2018-07-14T00:01:25.363Z,9.53
2018-07-14T00:03:53.965Z,8.80
2018-07-14T00:06:22.233Z,12.60
2018-07-14T00:08:51.715Z,12.33
2018-07-14T00:11:20.389Z,11.17
2018-07-14T00:13:49.067Z,10.53
2018-07-14T00:16:17.749Z,11.40
2018-07-14T00:18:46.397Z,9.63
2018-07-14T00:21:14.986Z,11.37
2018-07-14T00:23:43.600Z,11.63
2018-07-14T00:26:12.730Z,10.57
2018-07-14T00:28:41.372Z,9.83
2018-07-14T00:31:10.005Z,10.93
2018-07-14T00:33:38.628Z,8.93
2018-07-14T00:36:07.260Z,9.17
2018-07-14T00:38:35.984Z,10.90
2018-07-14T00:41:04.680Z,10.10
2018-07-14T00:43:33.513Z,10.37
2018-07-14T00:46:02.264Z,10.07
2018-07-14T00:48:30.902Z,9.67
2018-07-14T00:50:59.543Z,11.77
2018-07-14T00:53:28.203Z,12.43
2018-07-14T00:55:56.828Z,10.33
2018-07-14T00:58:25.429Z,9.63
2018-07-14T01:00:54.105Z,10.93
2018-07-14T01:03:22.770Z,10.67
2018-07-14T01:05:51.463Z,11.17
2018-07-14T01:08:20.102Z,10.00
2018-07-14T01:10:48.721Z,11.67
2018-07-14T01:13:17.359Z,12.17
2018-07-14T01:15:45.974Z,12.33
2018-07-14T01:18:14.624Z,10.30
2018-07-14T01:20:43.304Z,11.33
2018-07-14T01:23:12.659Z,9.70
2018-07-14T01:25:41.699Z,11.40
2018-07-14T01:28:10.344Z,13.03
2018-07-14T01:30:39.004Z,10.43
2018-07-14T01:33:07.821Z,13.03
2018-07-14T01:35:36.493Z,11.17
2018-07-14T01:38:05.142Z,11.87
2018-07-14T01:40:33.909Z,13.17
2018-07-14T01:43:02.588Z,15.17
2018-07-14T01:45:31.265Z,13.00
2018-07-14T01:47:59.918Z,13.47
2018-07-14T01:50:28.601Z,12.97
2018-07-14T01:52:57.231Z,12.57
2018-07-14T01:55:25.890Z,13.13
2018-07-14T01:57:54.568Z,12.60
2018-07-14T02:00:23.208Z,12.53
2018-07-14T02:02:51.913Z,12.57
2018-07-14T02:05:20.651Z,14.83
2018-07-14T02:07:49.279Z,11.50
2018-07-14T02:10:17.936Z,16.43
2018-07-14T02:12:46.567Z,11.67
2018-07-14T02:15:15.260Z,12.53
2018-07-14T02:17:43.900Z,14.00
2018-07-14T02:20:12.561Z,12.03
2018-07-14T02:22:41.239Z,14.20
2018-07-14T02:25:09.957Z,13.03
2018-07-14T02:27:38.527Z,13.43
2018-07-14T02:30:07.162Z,14.87
2018-07-14T02:32:35.835Z,15.33
2018-07-14T02:35:04.446Z,14.07
2018-07-14T02:37:33.150Z,15.73
2018-07-14T02:40:01.753Z,13.23
2018-07-14T02:42:30.407Z,13.27
2018-07-14T02:44:59.100Z,14.17
2018-07-14T02:47:27.774Z,14.47
2018-07-14T02:49:56.411Z,13.57
2018-07-14T02:52:25.027Z,13.97
2018-07-14T02:54:53.663Z,14.67
2018-07-14T02:57:22.265Z,14.27
2018-07-14T02:59:50.907Z,17.47
2018-07-14T03:02:19.549Z,15.07
2018-07-14T03:04:48.203Z,14.53
2018-07-14T03:07:16.819Z,14.17
2018-07-14T03:09:45.452Z,13.23
2018-07-14T03:12:14.177Z,14.30
2018-07-14T03:14:42.972Z,15.93
2018-07-14T03:17:11.569Z,15.00
2018-07-14T03:19:40.224Z,14.97
2018-07-14T03:22:08.858Z,15.23
2018-07-14T03:24:37.517Z,14.87
2018-07-14T03:27:06.201Z,15.33
2018-07-14T03:29:34.900Z,16.23
2018-07-14T03:32:03.569Z,14.17
2018-07-14T03:34:32.186Z,15.63
2018-07-14T03:37:00.910Z,17.77
2018-07-14T03:39:29.574Z,16.80
2018-07-14T03:41:58.383Z,18.93
2018-07-14T03:44:26.983Z,15.97
2018-07-14T03:46:55.247Z,17.43
2018-07-14T03:49:23.898Z,16.73
2018-07-14T03:51:52.550Z,17.67
2018-07-14T03:54:21.142Z,17.30
2018-07-14T03:56:49.784Z,17.43
2018-07-14T03:59:18.440Z,17.07
2018-07-14T04:01:47.136Z,18.03
2018-07-14T04:04:15.802Z,18.13
2018-07-14T04:06:44.078Z,20.73
2018-07-14T04:09:12.732Z,24.43
2018-07-14T04:11:41.402Z,23.37
2018-07-14T04:14:10.025Z,23.20
2018-07-14T04:16:38.654Z,22.63
2018-07-14T04:19:07.295Z,21.37
2018-07-14T04:21:35.949Z,19.80
2018-07-14T04:24:04.577Z,21.80
2018-07-14T04:26:33.211Z,21.47
2018-07-14T04:29:01.941Z,24.90
2018-07-14T04:31:30.631Z,26.63
2018-07-14T04:33:59.330Z,22.20
2018-07-14T04:36:27.998Z,21.90
2018-07-14T04:38:56.636Z,19.20
2018-07-14T04:41:25.286Z,17.10
2018-07-14T04:43:54.232Z,20.03
2018-07-14T04:46:22.924Z,15.50
2018-07-14T04:48:51.556Z,14.77
2018-07-14T04:51:20.232Z,16.23
2018-07-14T04:53:48.878Z,17.13
2018-07-14T04:56:17.534Z,18.00
2018-07-14T04:58:46.168Z,17.17
2018-07-14T05:01:14.880Z,18.30
2018-07-14T05:03:43.543Z,17.23
2018-07-14T05:06:12.171Z,17.40
2018-07-14T05:08:40.803Z,16.83
2018-07-14T05:11:09.424Z,19.63
2018-07-14T05:13:38.050Z,17.43
2018-07-14T05:16:06.909Z,16.13
2018-07-14T05:18:35.611Z,18.67
2018-07-14T05:21:04.309Z,17.20
2018-07-14T05:23:32.961Z,16.17
2018-07-14T05:26:01.717Z,17.60
2018-07-14T05:28:30.409Z,19.07
2018-07-14T05:30:59.048Z,16.90
2018-07-14T05:33:27.668Z,17.73
2018-07-14T05:35:56.321Z,15.30
2018-07-14T05:38:25.001Z,16.10
2018-07-14T05:40:53.666Z,17.23
2018-07-14T05:43:22.314Z,17.03
2018-07-14T05:45:50.993Z,17.27
2018-07-14T05:48:19.668Z,18.43
2018-07-14T05:50:48.307Z,15.97
2018-07-14T05:53:16.970Z,17.50
2018-07-14T05:55:45.608Z,19.27
2018-07-14T05:58:14.244Z,19.90
2018-07-14T06:00:42.885Z,15.17
2018-07-14T06:03:11.560Z,16.23
2018-07-14T06:05:40.180Z,17.30
2018-07-14T06:08:08.975Z,16.13
2018-07-14T06:10:37.593Z,15.63
2018-07-14T06:13:05.900Z,14.57
2018-07-14T06:15:34.587Z,16.30
2018-07-14T06:18:03.289Z,15.53
2018-07-14T06:20:31.991Z,14.93
2018-07-14T06:23:00.705Z,16.20
2018-07-14T06:25:28.992Z,18.63
2018-07-14T06:27:57.653Z,19.27
2018-07-14T06:30:26.352Z,15.67
2018-07-14T06:32:54.624Z,15.67
2018-07-14T06:35:23.698Z,16.20
2018-07-14T06:37:52.397Z,16.33
2018-07-14T06:40:21.093Z,13.53
2018-07-14T06:42:49.794Z,15.73
2018-07-14T06:45:18.480Z,13.83
2018-07-14T06:47:47.139Z,16.27
2018-07-14T06:50:15.811Z,13.97
2018-07-14T06:52:44.517Z,14.90
2018-07-14T06:55:13.231Z,13.83
2018-07-14T06:57:41.959Z,14.90
2018-07-14T07:00:10.631Z,11.93
2018-07-14T07:02:39.321Z,15.77
2018-07-14T07:05:07.999Z,12.87
2018-07-14T07:07:36.668Z,13.03
2018-07-14T07:10:05.477Z,12.53
2018-07-14T07:12:34.212Z,12.33
2018-07-14T07:15:02.852Z,13.00
2018-07-14T07:17:31.436Z,11.40
2018-07-14T07:20:00.121Z,11.53
2018-07-14T07:22:28.821Z,11.40
2018-07-14T07:24:57.515Z,10.93
2018-07-14T07:27:26.188Z,10.57
2018-07-14T07:29:54.838Z,11.43
2018-07-14T07:32:23.515Z,12.57
2018-07-14T07:34:51.803Z,10.63
2018-07-14T07:37:20.451Z,13.97
2018-07-14T07:39:49.141Z,10.83
2018-07-14T07:42:17.796Z,10.93
2018-07-14T07:44:46.425Z,9.70
2018-07-14T07:47:15.089Z,9.63
2018-07-14T07:49:43.801Z,11.80
2018-07-14T07:52:12.391Z,9.60
2018-07-14T07:54:41.049Z,9.93
2018-07-14T07:57:09.761Z,9.60
2018-07-14T07:59:38.385Z,13.07
2018-07-14T08:02:07.630Z,11.00
2018-07-14T08:04:36.312Z,10.73
2018-07-14T08:07:05.662Z,11.50
2018-07-14T08:09:34.290Z,10.20
2018-07-14T08:12:03.114Z,11.30
2018-07-14T08:14:31.785Z,11.27
2018-07-14T08:17:00.398Z,10.10
2018-07-14T08:19:29.136Z,9.17
2018-07-14T08:21:57.802Z,10.50
2018-07-14T08:24:26.455Z,8.63
2018-07-14T08:26:55.211Z,11.37
2018-07-14T08:29:23.891Z,12.40
2018-07-14T08:31:52.499Z,9.97
2018-07-14T08:34:21.176Z,12.63
2018-07-14T08:36:49.828Z,10.53
2018-07-14T08:39:18.430Z,9.37
2018-07-14T08:41:47.083Z,11.03
2018-07-14T08:44:15.811Z,12.10
2018-07-14T08:46:44.484Z,10.77
2018-07-14T08:49:13.136Z,11.87
2018-07-14T08:51:42.062Z,9.77
2018-07-14T08:54:10.760Z,11.83
2018-07-14T08:56:39.409Z,12.77
2018-07-14T08:59:08.055Z,12.57
2018-07-14T09:01:36.824Z,12.13
2018-07-14T09:04:05.574Z,12.23
2018-07-14T09:06:34.488Z,12.80
2018-07-14T09:09:03.229Z,11.40
2018-07-14T09:11:32.029Z,11.20
2018-07-14T09:14:00.747Z,11.60
2018-07-14T09:16:29.520Z,13.83
2018-07-14T09:18:58.092Z,12.10
2018-07-14T09:21:26.743Z,11.70
2018-07-14T09:23:55.487Z,12.30
2018-07-14T09:26:24.122Z,11.47
2018-07-14T09:28:52.808Z,14.37
2018-07-14T09:31:21.462Z,11.73
2018-07-14T09:33:50.252Z,10.90
2018-07-14T09:36:18.967Z,10.27
2018-07-14T09:38:47.709Z,12.27
2018-07-14T09:41:16.312Z,12.93
2018-07-14T09:43:45.025Z,11.53
2018-07-14T09:46:13.675Z,10.40
2018-07-14T09:48:42.332Z,12.77
2018-07-14T09:51:11.053Z,11.00
2018-07-14T09:53:39.785Z,12.23
2018-07-14T09:56:08.473Z,9.53
2018-07-14T09:58:37.135Z,12.90
2018-07-14T10:01:08.634Z,8.77
2018-07-14T10:03:38.132Z,11.50
2018-07-14T10:06:06.892Z,8.83
2018-07-14T10:08:35.646Z,10.13
2018-07-14T10:11:04.951Z,10.27
2018-07-14T10:13:33.620Z,11.27
2018-07-14T10:16:02.383Z,10.70
2018-07-14T10:18:31.155Z,9.53
2018-07-14T10:20:59.882Z,9.33
2018-07-14T10:23:28.634Z,10.70
2018-07-14T10:25:57.464Z,9.20
2018-07-14T10:28:26.030Z,7.93
2018-07-14T10:30:54.698Z,13.77
2018-07-14T10:33:23.324Z,10.63
2018-07-14T10:35:52.023Z,10.47
2018-07-14T10:38:20.683Z,11.07
2018-07-14T10:40:48.995Z,11.53
2018-07-14T10:43:17.885Z,8.97
2018-07-14T10:45:46.556Z,8.40
2018-07-14T10:48:15.169Z,9.07
2018-07-14T10:50:43.899Z,8.60
2018-07-14T10:53:12.529Z,8.10
2018-07-14T10:55:41.176Z,9.17
2018-07-14T10:58:09.914Z,7.93
2018-07-14T11:00:38.206Z,8.00
2018-07-14T11:03:07.324Z,11.20
2018-07-14T11:05:36.014Z,12.43
2018-07-14T11:08:04.764Z,8.47
2018-07-14T11:10:33.390Z,8.10
2018-07-14T11:13:02.135Z,13.70
2018-07-14T11:15:30.402Z,8.90
2018-07-14T11:17:59.057Z,7.50
2018-07-14T11:20:27.727Z,8.13
2018-07-14T11:22:56.409Z,8.63
2018-07-14T11:25:25.092Z,9.00
2018-07-14T11:27:54.024Z,9.77
2018-07-14T11:30:22.766Z,10.93
2018-07-14T11:32:51.349Z,8.37
2018-07-14T11:35:20.024Z,9.40
2018-07-14T11:37:48.835Z,9.00
2018-07-14T11:40:17.559Z,7.93
2018-07-14T11:42:46.270Z,6.40
2018-07-14T11:45:14.872Z,9.70
2018-07-14T11:47:43.727Z,10.27
2018-07-14T11:50:12.842Z,8.60
2018-07-14T11:52:41.524Z,7.67
2018-07-14T11:55:10.283Z,9.90
2018-07-14T11:57:38.915Z,8.73
2018-07-14T12:00:07.613Z,8.50
2018-07-14T12:02:36.848Z,6.60
2018-07-14T12:05:05.651Z,7.20
2018-07-14T12:07:34.355Z,6.93
2018-07-14T12:10:03.111Z,8.80
2018-07-14T12:12:31.777Z,8.13
2018-07-14T12:15:00.555Z,6.20
2018-07-14T12:17:29.258Z,7.23
2018-07-14T12:19:57.934Z,7.67
2018-07-14T12:22:26.709Z,8.70
2018-07-14T12:24:56.320Z,6.50
2018-07-14T12:27:24.977Z,7.10
2018-07-14T12:29:53.671Z,8.37
2018-07-14T12:32:22.430Z,6.73
2018-07-14T12:34:52.102Z,6.00
2018-07-14T12:37:20.801Z,5.57
2018-07-14T12:39:49.414Z,4.93
2018-07-14T12:42:18.032Z,6.20
2018-07-14T12:44:46.315Z,6.63
2018-07-14T12:47:14.934Z,5.53
2018-07-14T12:49:43.578Z,5.50
2018-07-14T12:52:12.222Z,6.23
2018-07-14T12:54:40.847Z,6.43
2018-07-14T12:57:09.517Z,8.57
2018-07-14T12:59:38.209Z,8.40
2018-07-14T13:02:07.510Z,7.40
2018-07-14T13:04:36.262Z,7.80
2018-07-14T13:07:04.988Z,5.73
2018-07-14T13:09:33.685Z,5.87
2018-07-14T13:12:02.503Z,6.37
2018-07-14T13:14:31.689Z,5.03
2018-07-14T13:17:00.571Z,5.23
2018-07-14T13:19:29.256Z,5.53
2018-07-14T13:21:58.015Z,5.83
2018-07-14T13:24:26.741Z,5.43
2018-07-14T13:26:55.461Z,5.97
2018-07-14T13:29:24.159Z,5.67
2018-07-14T13:31:52.871Z,5.17
2018-07-14T13:34:21.512Z,3.83
2018-07-14T13:36:50.215Z,4.80
2018-07-14T13:39:18.954Z,5.43
2018-07-14T13:41:47.675Z,6.53
2018-07-14T13:44:16.346Z,7.07
2018-07-14T13:46:45.122Z,4.53
2018-07-14T13:49:14.094Z,6.60
2018-07-14T13:51:42.751Z,5.10
2018-07-14T13:54:11.481Z,6.40
2018-07-14T13:56:40.097Z,6.50
2018-07-14T13:59:08.748Z,4.03
2018-07-14T14:01:37.452Z,4.67
2018-07-14T14:04:06.160Z,4.67
2018-07-14T14:06:34.875Z,4.03
2018-07-14T14:09:04.311Z,4.33
2018-07-14T14:11:33.109Z,8.20
2018-07-14T14:14:01.733Z,4.57
2018-07-14T14:16:30.431Z,5.40
2018-07-14T14:18:59.139Z,4.97
2018-07-14T14:21:28.243Z,5.10
2018-07-14T14:23:56.864Z,6.80
2018-07-14T14:26:25.521Z,4.70
2018-07-14T14:28:54.239Z,7.37
2018-07-14T14:31:22.924Z,6.80
2018-07-14T14:33:51.614Z,6.50
2018-07-14T14:36:20.650Z,6.03
2018-07-14T14:38:49.344Z,5.70
2018-07-14T14:41:18.010Z,5.20
2018-07-14T14:43:46.706Z,6.23
2018-07-14T14:46:15.364Z,6.13
2018-07-14T14:48:44.005Z,5.20
2018-07-14T14:51:12.795Z,5.03
2018-07-14T14:53:41.495Z,5.03
2018-07-14T14:56:10.473Z,5.53
2018-07-14T14:58:39.033Z,5.60
2018-07-14T15:01:07.807Z,4.53
2018-07-14T15:03:36.505Z,4.20
2018-07-14T15:06:05.355Z,4.60
2018-07-14T15:08:34.071Z,5.90
2018-07-14T15:11:02.750Z,2.83
2018-07-14T15:13:31.447Z,5.07
2018-07-14T15:16:00.125Z,4.40
2018-07-14T15:18:28.878Z,3.67
2018-07-14T15:20:57.654Z,3.90
2018-07-14T15:23:26.353Z,3.93
2018-07-14T15:25:55.188Z,4.63
2018-07-14T15:28:23.808Z,4.53
2018-07-14T15:30:52.590Z,5.10
2018-07-14T15:33:21.312Z,4.50
2018-07-14T15:35:50.132Z,4.00
2018-07-14T15:38:18.874Z,5.73
2018-07-14T15:40:47.591Z,5.00
2018-07-14T15:43:16.477Z,3.80
2018-07-14T15:45:45.618Z,5.90
2018-07-14T15:48:14.344Z,4.07
2018-07-14T15:50:43.141Z,4.23
2018-07-14T15:53:11.917Z,5.57
2018-07-14T15:55:40.797Z,3.30
2018-07-14T15:58:10.149Z,5.23
2018-07-14T16:00:38.967Z,4.17
2018-07-14T16:03:07.822Z,2.98
2018-07-14T16:05:36.641Z,2.92
2018-07-14T16:08:05.462Z,2.67
2018-07-14T16:10:34.282Z,5.03
2018-07-14T16:13:03.091Z,4.53
2018-07-14T16:15:31.945Z,2.97
2018-07-14T16:18:00.726Z,4.40
2018-07-14T16:20:29.450Z,10.07
2018-07-14T16:22:58.152Z,3.20
2018-07-14T16:25:26.909Z,3.73
2018-07-14T16:27:55.685Z,3.33
2018-07-14T16:30:24.415Z,4.40
2018-07-14T16:32:53.209Z,3.30
2018-07-14T16:35:21.977Z,3.80
2018-07-14T16:37:50.723Z,7.23
2018-07-14T16:40:19.443Z,3.40
2018-07-14T16:42:48.302Z,2.27
2018-07-14T16:45:16.583Z,4.73
2018-07-14T16:47:45.356Z,5.07
2018-07-14T16:50:14.104Z,3.00
2018-07-14T16:52:42.858Z,4.30
2018-07-14T16:55:11.592Z,4.93
2018-07-14T16:57:40.404Z,2.37
2018-07-14T17:00:09.259Z,3.50
2018-07-14T17:02:38.085Z,2.37
2018-07-14T17:05:06.839Z,3.07
2018-07-14T17:07:35.566Z,5.17
2018-07-14T17:10:04.360Z,2.03
2018-07-14T17:12:33.067Z,1.83
2018-07-14T17:15:01.748Z,1.73
2018-07-14T17:17:30.462Z,5.80
2018-07-14T17:19:58.789Z,2.93
2018-07-14T17:22:27.500Z,2.37
2018-07-14T17:24:56.287Z,3.37
2018-07-14T17:27:24.999Z,2.77
2018-07-14T17:29:53.701Z,2.73
2018-07-14T17:32:22.626Z,3.00
2018-07-14T17:34:51.950Z,2.97
2018-07-14T17:37:20.673Z,3.83
2018-07-14T17:39:50.342Z,2.87
2018-07-14T17:42:19.112Z,3.20
2018-07-14T17:44:47.807Z,3.63
2018-07-14T17:47:16.530Z,1.50
2018-07-14T17:49:45.286Z,2.37
2018-07-14T17:52:13.991Z,3.00
2018-07-14T17:54:42.715Z,2.57
2018-07-14T17:57:11.389Z,2.27
2018-07-14T17:59:40.140Z,2.37
2018-07-14T18:02:08.969Z,3.83
2018-07-14T18:04:37.723Z,2.13
2018-07-14T18:07:06.470Z,3.30
2018-07-14T18:09:35.161Z,4.50
2018-07-14T18:12:03.948Z,1.90
2018-07-14T18:14:32.652Z,4.07
2018-07-14T18:17:01.377Z,4.13
2018-07-14T18:19:30.124Z,3.90
2018-07-14T18:21:58.816Z,3.87
2018-07-14T18:24:27.601Z,3.77
2018-07-14T18:26:56.285Z,2.30
2018-07-14T18:29:25.017Z,2.47
2018-07-14T18:31:53.752Z,14.93
2018-07-14T18:34:22.423Z,3.50
2018-07-14T18:36:51.145Z,2.93
2018-07-14T18:39:19.849Z,2.27
2018-07-14T18:41:48.549Z,3.50
2018-07-14T18:44:17.167Z,3.53
2018-07-14T18:46:45.901Z,1.60
2018-07-14T18:49:14.595Z,2.03
2018-07-14T18:51:43.300Z,3.17
2018-07-14T18:54:11.982Z,2.10
2018-07-14T18:56:40.705Z,4.57
2018-07-14T18:59:09.408Z,4.10
2018-07-14T19:01:38.280Z,1.53
2018-07-14T19:04:07.271Z,2.00
2018-07-14T19:06:35.967Z,2.87
2018-07-14T19:09:05.307Z,4.73
2018-07-14T19:11:33.951Z,3.33
2018-07-14T19:14:02.701Z,2.73
2018-07-14T19:16:31.399Z,3.40
2018-07-14T19:19:00.108Z,3.90
2018-07-14T19:21:28.807Z,3.83
2018-07-14T19:23:57.521Z,6.97
2018-07-14T19:26:26.206Z,8.00
2018-07-14T19:28:54.915Z,10.27
2018-07-14T19:31:23.608Z,10.73
2018-07-14T19:33:52.288Z,6.97
2018-07-14T19:36:20.985Z,4.03
2018-07-14T19:38:49.712Z,4.60
2018-07-14T19:41:18.435Z,3.47
2018-07-14T19:43:47.169Z,3.30
2018-07-14T19:46:15.838Z,3.80
2018-07-14T19:48:44.580Z,4.23
2018-07-14T19:51:13.842Z,3.77
2018-07-14T19:53:42.508Z,4.30
2018-07-14T19:56:11.300Z,2.43
2018-07-14T19:58:39.972Z,2.43
2018-07-14T20:01:08.615Z,3.40
2018-07-14T20:03:37.272Z,3.73
2018-07-14T20:06:06.012Z,2.27
2018-07-14T20:08:34.774Z,1.67
2018-07-14T20:11:04.395Z,4.67
2018-07-14T20:13:33.070Z,3.93
2018-07-14T20:16:01.723Z,3.40
2018-07-14T20:18:30.545Z,3.07
2018-07-14T20:20:59.229Z,4.40
2018-07-14T20:23:27.881Z,3.70
2018-07-14T20:25:56.598Z,3.77
2018-07-14T20:28:25.261Z,3.97
2018-07-14T20:30:53.952Z,3.30
2018-07-14T20:33:22.602Z,4.43
2018-07-14T20:35:51.376Z,2.00
2018-07-14T20:38:20.023Z,3.03
2018-07-14T20:40:48.728Z,4.70
2018-07-14T20:43:17.380Z,2.00
2018-07-14T20:45:46.145Z,4.30
2018-07-14T20:48:14.828Z,1.93
2018-07-14T20:50:43.493Z,2.30
2018-07-14T20:53:12.179Z,6.20
2018-07-14T20:55:40.855Z,3.00
2018-07-14T20:58:09.535Z,3.43
2018-07-14T21:00:38.207Z,3.47
2018-07-14T21:03:06.855Z,3.17
2018-07-14T21:05:35.527Z,2.47
2018-07-14T21:08:04.289Z,2.90
2018-07-14T21:10:32.913Z,4.67
2018-07-14T21:13:01.917Z,4.17
2018-07-14T21:15:30.623Z,5.40
2018-07-14T21:17:59.300Z,4.70
2018-07-14T21:20:27.988Z,3.43
2018-07-14T21:22:56.700Z,3.23
2018-07-14T21:25:25.366Z,5.40
2018-07-14T21:27:54.042Z,5.67
2018-07-14T21:30:22.654Z,3.03
2018-07-14T21:32:51.355Z,2.93
2018-07-14T21:35:20.095Z,5.73
2018-07-14T21:37:48.737Z,2.80
2018-07-14T21:40:17.544Z,3.60
2018-07-14T21:42:46.204Z,3.37
2018-07-14T21:45:14.901Z,3.90
2018-07-14T21:47:43.678Z,2.63
2018-07-14T21:50:12.485Z,2.80
2018-07-14T21:52:41.193Z,4.57
2018-07-14T21:55:09.893Z,3.70
2018-07-14T21:57:38.571Z,4.33
2018-07-14T22:00:07.618Z,3.30
2018-07-14T22:02:36.312Z,4.63
2018-07-14T22:05:05.053Z,3.53
2018-07-14T22:07:33.759Z,2.27
2018-07-14T22:10:02.421Z,3.50
2018-07-14T22:12:31.092Z,3.50
2018-07-14T22:14:59.868Z,3.73
2018-07-14T22:17:28.576Z,3.07
2018-07-14T22:19:57.303Z,4.80
2018-07-14T22:22:26.004Z,3.60
2018-07-14T22:24:54.737Z,4.83
2018-07-14T22:27:23.345Z,5.50
2018-07-14T22:29:52.053Z,3.60
2018-07-14T22:32:20.798Z,3.27
2018-07-14T22:34:49.502Z,5.77
2018-07-14T22:37:18.146Z,4.80
2018-07-14T22:39:46.822Z,6.13
2018-07-14T22:42:15.634Z,3.17
2018-07-14T22:44:44.360Z,3.90
2018-07-14T22:47:13.100Z,4.67
2018-07-14T22:49:41.829Z,5.13
2018-07-14T22:52:10.531Z,3.53
2018-07-14T22:54:39.204Z,3.70
2018-07-14T22:57:07.885Z,5.80
2018-07-14T22:59:36.203Z,5.10
2018-07-14T23:02:05.345Z,5.33
2018-07-14T23:04:34.009Z,3.87
2018-07-14T23:07:02.776Z,5.23
2018-07-14T23:09:31.433Z,3.83
2018-07-14T23:11:59.762Z,5.40
2018-07-14T23:14:28.432Z,3.97
2018-07-14T23:16:57.147Z,4.03
2018-07-14T23:19:25.768Z,7.07
2018-07-14T23:21:54.427Z,4.47
2018-07-14T23:24:23.154Z,4.30
2018-07-14T23:26:51.804Z,4.03
2018-07-14T23:29:20.496Z,3.83
2018-07-14T23:31:49.154Z,6.30
2018-07-14T23:34:17.806Z,5.97
2018-07-14T23:36:46.459Z,7.67
2018-07-14T23:39:15.191Z,3.67
2018-07-14T23:41:43.988Z,4.10
2018-07-14T23:44:12.359Z,4.63
2018-07-14T23:46:41.054Z,6.80
2018-07-14T23:49:09.763Z,4.87
2018-07-14T23:51:38.451Z,6.10
2018-07-14T23:54:07.108Z,4.13
2018-07-14T23:56:35.741Z,6.17
2018-07-14T23:59:04.433Z,5.13
